sensor_id;sensor_type;location;lat;lon;timestamp;P1;durP1;ratioP1;P2;durP2;ratioP2
72427;SDS011;60419;48.880;18.036;2022-11-20T00:02:37;42.50;;;20.92;;
72427;SDS011;60419;48.880;18.036;2022-11-20T00:05:23;39.50;;;20.50;;
72427;SDS011;60419;48.880;18.036;2022-11-20T00:08:08;45.95;;;21.10;;
72427;SDS011;60419;48.880;18.036;2022-11-20T00:10:53;40.97;;;20.83;;
72427;SDS011;60419;48.880;18.036;2022-11-20T00:13:39;45.40;;;21.65;;
72427;SDS011;60419;48.880;18.036;2022-11-20T00:16:25;42.83;;;20.63;;
72427;SDS011;60419;48.880;18.036;2022-11-20T00:19:12;38.28;;;20.52;;
72427;SDS011;60419;48.880;18.036;2022-11-20T00:21:57;39.03;;;21.05;;
72427;SDS011;60419;48.880;18.036;2022-11-20T00:24:43;39.15;;;20.88;;
72427;SDS011;60419;48.880;18.036;2022-11-20T00:27:28;40.63;;;20.67;;
72427;SDS011;60419;48.880;18.036;2022-11-20T00:30:13;36.92;;;18.83;;
72427;SDS011;60419;48.880;18.036;2022-11-20T00:32:59;39.60;;;20.15;;
72427;SDS011;60419;48.880;18.036;2022-11-20T00:35:44;38.83;;;19.80;;
72427;SDS011;60419;48.880;18.036;2022-11-20T00:38:30;38.90;;;19.42;;
72427;SDS011;60419;48.880;18.036;2022-11-20T00:41:16;41.00;;;20.30;;
72427;SDS011;60419;48.880;18.036;2022-11-20T00:44:01;39.65;;;20.08;;
72427;SDS011;60419;48.880;18.036;2022-11-20T00:46:47;38.88;;;20.58;;
72427;SDS011;60419;48.880;18.036;2022-11-20T00:49:32;41.90;;;21.08;;
72427;SDS011;60419;48.880;18.036;2022-11-20T00:52:17;40.70;;;20.10;;
72427;SDS011;60419;48.880;18.036;2022-11-20T00:55:03;39.40;;;19.95;;
72427;SDS011;60419;48.880;18.036;2022-11-20T00:57:48;38.47;;;18.80;;
72427;SDS011;60419;48.880;18.036;2022-11-20T01:00:34;40.95;;;20.02;;
72427;SDS011;60419;48.880;18.036;2022-11-20T01:03:19;36.33;;;18.33;;
72427;SDS011;60419;48.880;18.036;2022-11-20T01:09:09;39.50;;;20.27;;
72427;SDS011;60419;48.880;18.036;2022-11-20T01:11:56;38.97;;;19.08;;
72427;SDS011;60419;48.880;18.036;2022-11-20T01:14:41;47.35;;;20.27;;
72427;SDS011;60419;48.880;18.036;2022-11-20T01:17:27;41.40;;;19.35;;
72427;SDS011;60419;48.880;18.036;2022-11-20T01:20:12;39.10;;;19.90;;
72427;SDS011;60419;48.880;18.036;2022-11-20T01:22:58;37.08;;;19.50;;
72427;SDS011;60419;48.880;18.036;2022-11-20T01:25:43;36.78;;;17.63;;
72427;SDS011;60419;48.880;18.036;2022-11-20T01:28:29;42.75;;;19.98;;
72427;SDS011;60419;48.880;18.036;2022-11-20T01:31:22;41.97;;;19.92;;
72427;SDS011;60419;48.880;18.036;2022-11-20T01:34:11;39.40;;;19.73;;
72427;SDS011;60419;48.880;18.036;2022-11-20T01:37:01;37.15;;;20.00;;
72427;SDS011;60419;48.880;18.036;2022-11-20T01:39:46;38.47;;;19.70;;
72427;SDS011;60419;48.880;18.036;2022-11-20T01:42:32;40.42;;;20.45;;
72427;SDS011;60419;48.880;18.036;2022-11-20T01:52:07;34.92;;;18.95;;
72427;SDS011;60419;48.880;18.036;2022-11-20T01:55:05;37.25;;;20.45;;
72427;SDS011;60419;48.880;18.036;2022-11-20T01:57:54;38.70;;;19.60;;
72427;SDS011;60419;48.880;18.036;2022-11-20T02:00:40;38.42;;;19.67;;
72427;SDS011;60419;48.880;18.036;2022-11-20T02:03:25;37.67;;;19.00;;
72427;SDS011;60419;48.880;18.036;2022-11-20T02:06:13;39.60;;;18.55;;
72427;SDS011;60419;48.880;18.036;2022-11-20T02:09:04;40.28;;;19.08;;
72427;SDS011;60419;48.880;18.036;2022-11-20T02:11:49;39.75;;;20.00;;
72427;SDS011;60419;48.880;18.036;2022-11-20T02:14:36;38.50;;;19.10;;
72427;SDS011;60419;48.880;18.036;2022-11-20T02:17:22;36.83;;;18.83;;
72427;SDS011;60419;48.880;18.036;2022-11-20T02:20:08;37.58;;;18.90;;
72427;SDS011;60419;48.880;18.036;2022-11-20T02:22:55;37.58;;;19.25;;
72427;SDS011;60419;48.880;18.036;2022-11-20T02:25:41;38.92;;;20.15;;
72427;SDS011;60419;48.880;18.036;2022-11-20T02:28:29;35.35;;;18.75;;
72427;SDS011;60419;48.880;18.036;2022-11-20T02:31:14;33.90;;;18.38;;
72427;SDS011;60419;48.880;18.036;2022-11-20T02:34:00;36.17;;;18.85;;
72427;SDS011;60419;48.880;18.036;2022-11-20T02:36:45;38.15;;;18.85;;
72427;SDS011;60419;48.880;18.036;2022-11-20T02:39:31;33.80;;;18.80;;
72427;SDS011;60419;48.880;18.036;2022-11-20T02:42:17;35.55;;;18.58;;
72427;SDS011;60419;48.880;18.036;2022-11-20T02:45:03;39.42;;;19.17;;
72427;SDS011;60419;48.880;18.036;2022-11-20T02:47:50;34.63;;;18.15;;
72427;SDS011;60419;48.880;18.036;2022-11-20T02:50:37;37.08;;;19.08;;
72427;SDS011;60419;48.880;18.036;2022-11-20T02:53:23;38.13;;;18.77;;
72427;SDS011;60419;48.880;18.036;2022-11-20T02:56:09;39.45;;;18.80;;
72427;SDS011;60419;48.880;18.036;2022-11-20T02:58:54;33.53;;;16.95;;
72427;SDS011;60419;48.880;18.036;2022-11-20T03:01:40;40.00;;;19.42;;
72427;SDS011;60419;48.880;18.036;2022-11-20T03:04:25;35.55;;;18.20;;
72427;SDS011;60419;48.880;18.036;2022-11-20T03:07:11;37.45;;;19.33;;
72427;SDS011;60419;48.880;18.036;2022-11-20T03:09:56;38.25;;;19.23;;
72427;SDS011;60419;48.880;18.036;2022-11-20T03:12:42;37.35;;;18.10;;
72427;SDS011;60419;48.880;18.036;2022-11-20T03:15:27;36.42;;;18.50;;
72427;SDS011;60419;48.880;18.036;2022-11-20T03:18:13;35.53;;;18.08;;
72427;SDS011;60419;48.880;18.036;2022-11-20T03:20:58;34.92;;;18.20;;
72427;SDS011;60419;48.880;18.036;2022-11-20T03:23:44;37.42;;;18.88;;
72427;SDS011;60419;48.880;18.036;2022-11-20T03:26:29;42.72;;;20.65;;
72427;SDS011;60419;48.880;18.036;2022-11-20T03:29:15;36.85;;;18.63;;
72427;SDS011;60419;48.880;18.036;2022-11-20T03:32:00;44.03;;;19.70;;
72427;SDS011;60419;48.880;18.036;2022-11-20T03:34:45;37.05;;;18.45;;
72427;SDS011;60419;48.880;18.036;2022-11-20T03:37:31;38.97;;;19.50;;
72427;SDS011;60419;48.880;18.036;2022-11-20T03:40:17;38.55;;;20.00;;
72427;SDS011;60419;48.880;18.036;2022-11-20T03:43:02;39.88;;;20.05;;
72427;SDS011;60419;48.880;18.036;2022-11-20T03:45:47;36.15;;;18.80;;
72427;SDS011;60419;48.880;18.036;2022-11-20T03:48:33;41.35;;;19.88;;
72427;SDS011;60419;48.880;18.036;2022-11-20T03:51:22;37.38;;;18.75;;
72427;SDS011;60419;48.880;18.036;2022-11-20T03:54:10;40.67;;;19.30;;
72427;SDS011;60419;48.880;18.036;2022-11-20T03:56:55;37.28;;;19.23;;
72427;SDS011;60419;48.880;18.036;2022-11-20T03:59:41;36.63;;;17.90;;
72427;SDS011;60419;48.880;18.036;2022-11-20T04:02:26;41.05;;;18.65;;
72427;SDS011;60419;48.880;18.036;2022-11-20T04:05:12;35.80;;;18.55;;
72427;SDS011;60419;48.880;18.036;2022-11-20T04:07:57;38.42;;;19.15;;
72427;SDS011;60419;48.880;18.036;2022-11-20T04:10:43;38.53;;;19.58;;
72427;SDS011;60419;48.880;18.036;2022-11-20T04:13:28;39.83;;;19.27;;
72427;SDS011;60419;48.880;18.036;2022-11-20T04:16:15;39.55;;;19.50;;
72427;SDS011;60419;48.880;18.036;2022-11-20T04:19:02;41.08;;;20.33;;
72427;SDS011;60419;48.880;18.036;2022-11-20T04:21:49;42.33;;;19.23;;
72427;SDS011;60419;48.880;18.036;2022-11-20T04:24:34;38.38;;;19.63;;
72427;SDS011;60419;48.880;18.036;2022-11-20T04:27:19;40.17;;;19.92;;
72427;SDS011;60419;48.880;18.036;2022-11-20T04:30:05;39.55;;;19.58;;
72427;SDS011;60419;48.880;18.036;2022-11-20T04:32:51;38.00;;;19.45;;
72427;SDS011;60419;48.880;18.036;2022-11-20T04:35:37;39.60;;;19.73;;
72427;SDS011;60419;48.880;18.036;2022-11-20T04:38:22;40.33;;;18.75;;
72427;SDS011;60419;48.880;18.036;2022-11-20T04:41:09;37.20;;;19.38;;
72427;SDS011;60419;48.880;18.036;2022-11-20T04:44:00;38.58;;;18.70;;
72427;SDS011;60419;48.880;18.036;2022-11-20T04:46:49;40.03;;;19.15;;
72427;SDS011;60419;48.880;18.036;2022-11-20T04:49:35;39.58;;;19.45;;
72427;SDS011;60419;48.880;18.036;2022-11-20T04:52:20;40.70;;;18.98;;
72427;SDS011;60419;48.880;18.036;2022-11-20T04:55:06;38.28;;;18.60;;
72427;SDS011;60419;48.880;18.036;2022-11-20T04:57:52;42.35;;;19.05;;
72427;SDS011;60419;48.880;18.036;2022-11-20T05:00:37;40.83;;;19.45;;
72427;SDS011;60419;48.880;18.036;2022-11-20T05:03:23;38.17;;;19.33;;
72427;SDS011;60419;48.880;18.036;2022-11-20T05:06:09;41.55;;;19.00;;
72427;SDS011;60419;48.880;18.036;2022-11-20T05:08:56;41.13;;;19.80;;
72427;SDS011;60419;48.880;18.036;2022-11-20T05:11:42;44.47;;;18.60;;
72427;SDS011;60419;48.880;18.036;2022-11-20T05:14:27;44.92;;;21.20;;
72427;SDS011;60419;48.880;18.036;2022-11-20T05:17:12;38.55;;;18.52;;
72427;SDS011;60419;48.880;18.036;2022-11-20T05:19:58;43.20;;;19.20;;
72427;SDS011;60419;48.880;18.036;2022-11-20T05:22:44;47.28;;;19.23;;
72427;SDS011;60419;48.880;18.036;2022-11-20T05:25:29;43.30;;;20.58;;
72427;SDS011;60419;48.880;18.036;2022-11-20T05:28:14;47.65;;;21.75;;
72427;SDS011;60419;48.880;18.036;2022-11-20T05:31:06;39.22;;;19.17;;
72427;SDS011;60419;48.880;18.036;2022-11-20T05:33:56;43.22;;;19.85;;
72427;SDS011;60419;48.880;18.036;2022-11-20T05:36:42;39.10;;;19.83;;
72427;SDS011;60419;48.880;18.036;2022-11-20T05:39:27;44.95;;;20.33;;
72427;SDS011;60419;48.880;18.036;2022-11-20T05:42:13;41.00;;;20.17;;
72427;SDS011;60419;48.880;18.036;2022-11-20T05:45:16;43.35;;;21.25;;
72427;SDS011;60419;48.880;18.036;2022-11-20T05:48:02;44.45;;;20.38;;
72427;SDS011;60419;48.880;18.036;2022-11-20T05:50:47;41.13;;;19.45;;
72427;SDS011;60419;48.880;18.036;2022-11-20T05:53:33;46.08;;;21.25;;
72427;SDS011;60419;48.880;18.036;2022-11-20T05:56:20;42.95;;;21.27;;
72427;SDS011;60419;48.880;18.036;2022-11-20T05:59:06;46.25;;;20.90;;
72427;SDS011;60419;48.880;18.036;2022-11-20T06:01:51;44.72;;;21.92;;
72427;SDS011;60419;48.880;18.036;2022-11-20T06:04:37;41.05;;;19.52;;
72427;SDS011;60419;48.880;18.036;2022-11-20T06:07:22;50.25;;;21.95;;
72427;SDS011;60419;48.880;18.036;2022-11-20T06:10:08;43.85;;;20.17;;
72427;SDS011;60419;48.880;18.036;2022-11-20T06:12:56;41.75;;;21.20;;
72427;SDS011;60419;48.880;18.036;2022-11-20T06:15:47;42.55;;;20.58;;
72427;SDS011;60419;48.880;18.036;2022-11-20T06:18:36;43.35;;;21.45;;
72427;SDS011;60419;48.880;18.036;2022-11-20T06:21:22;42.15;;;20.95;;
72427;SDS011;60419;48.880;18.036;2022-11-20T06:24:11;42.50;;;20.70;;
72427;SDS011;60419;48.880;18.036;2022-11-20T06:26:56;42.90;;;20.23;;
72427;SDS011;60419;48.880;18.036;2022-11-20T06:29:42;37.90;;;20.13;;
72427;SDS011;60419;48.880;18.036;2022-11-20T06:32:27;43.60;;;22.27;;
72427;SDS011;60419;48.880;18.036;2022-11-20T06:35:13;41.30;;;20.17;;
72427;SDS011;60419;48.880;18.036;2022-11-20T06:37:58;45.80;;;21.25;;
72427;SDS011;60419;48.880;18.036;2022-11-20T06:40:44;41.65;;;20.35;;
72427;SDS011;60419;48.880;18.036;2022-11-20T06:43:29;40.95;;;20.42;;
72427;SDS011;60419;48.880;18.036;2022-11-20T06:46:15;42.17;;;20.98;;
72427;SDS011;60419;48.880;18.036;2022-11-20T06:49:04;40.70;;;19.92;;
72427;SDS011;60419;48.880;18.036;2022-11-20T06:51:50;39.83;;;20.38;;
72427;SDS011;60419;48.880;18.036;2022-11-20T06:54:36;42.90;;;20.20;;
72427;SDS011;60419;48.880;18.036;2022-11-20T06:57:21;40.42;;;20.50;;
72427;SDS011;60419;48.880;18.036;2022-11-20T07:00:07;37.42;;;19.67;;
72427;SDS011;60419;48.880;18.036;2022-11-20T07:02:53;42.17;;;20.08;;
72427;SDS011;60419;48.880;18.036;2022-11-20T07:05:38;40.80;;;20.23;;
72427;SDS011;60419;48.880;18.036;2022-11-20T07:08:24;41.33;;;20.20;;
72427;SDS011;60419;48.880;18.036;2022-11-20T07:11:13;41.63;;;19.60;;
72427;SDS011;60419;48.880;18.036;2022-11-20T07:13:58;39.13;;;18.00;;
72427;SDS011;60419;48.880;18.036;2022-11-20T07:16:44;41.85;;;20.73;;
72427;SDS011;60419;48.880;18.036;2022-11-20T07:19:29;41.60;;;19.88;;
72427;SDS011;60419;48.880;18.036;2022-11-20T07:22:15;41.65;;;21.02;;
72427;SDS011;60419;48.880;18.036;2022-11-20T07:25:00;41.20;;;21.02;;
72427;SDS011;60419;48.880;18.036;2022-11-20T07:27:46;40.28;;;20.13;;
72427;SDS011;60419;48.880;18.036;2022-11-20T07:30:32;42.72;;;20.50;;
72427;SDS011;60419;48.880;18.036;2022-11-20T07:33:17;41.58;;;20.52;;
72427;SDS011;60419;48.880;18.036;2022-11-20T07:36:02;44.28;;;21.05;;
72427;SDS011;60419;48.880;18.036;2022-11-20T07:38:48;40.22;;;19.25;;
72427;SDS011;60419;48.880;18.036;2022-11-20T07:41:33;40.15;;;19.25;;
72427;SDS011;60419;48.880;18.036;2022-11-20T07:44:19;43.33;;;20.30;;
72427;SDS011;60419;48.880;18.036;2022-11-20T07:47:04;40.80;;;19.95;;
72427;SDS011;60419;48.880;18.036;2022-11-20T07:49:50;40.50;;;20.35;;
72427;SDS011;60419;48.880;18.036;2022-11-20T07:52:35;44.85;;;21.27;;
72427;SDS011;60419;48.880;18.036;2022-11-20T07:55:20;43.03;;;20.77;;
72427;SDS011;60419;48.880;18.036;2022-11-20T07:58:06;42.75;;;19.23;;
72427;SDS011;60419;48.880;18.036;2022-11-20T08:00:51;44.05;;;20.60;;
72427;SDS011;60419;48.880;18.036;2022-11-20T08:03:36;43.72;;;21.42;;
72427;SDS011;60419;48.880;18.036;2022-11-20T08:06:25;40.20;;;20.77;;
72427;SDS011;60419;48.880;18.036;2022-11-20T08:09:10;45.22;;;21.83;;
72427;SDS011;60419;48.880;18.036;2022-11-20T08:11:55;43.35;;;21.15;;
72427;SDS011;60419;48.880;18.036;2022-11-20T08:14:59;43.50;;;19.63;;
72427;SDS011;60419;48.880;18.036;2022-11-20T08:17:44;42.53;;;20.60;;
72427;SDS011;60419;48.880;18.036;2022-11-20T08:20:30;41.83;;;20.38;;
72427;SDS011;60419;48.880;18.036;2022-11-20T08:23:15;39.72;;;20.20;;
72427;SDS011;60419;48.880;18.036;2022-11-20T08:26:01;39.75;;;20.60;;
72427;SDS011;60419;48.880;18.036;2022-11-20T08:28:46;65.68;;;29.75;;
72427;SDS011;60419;48.880;18.036;2022-11-20T08:31:31;46.80;;;23.35;;
72427;SDS011;60419;48.880;18.036;2022-11-20T08:34:17;39.08;;;21.70;;
72427;SDS011;60419;48.880;18.036;2022-11-20T08:37:02;42.17;;;20.58;;
72427;SDS011;60419;48.880;18.036;2022-11-20T08:39:48;40.10;;;21.13;;
72427;SDS011;60419;48.880;18.036;2022-11-20T08:42:33;39.42;;;21.02;;
72427;SDS011;60419;48.880;18.036;2022-11-20T08:45:18;42.60;;;20.50;;
72427;SDS011;60419;48.880;18.036;2022-11-20T08:48:05;43.40;;;21.50;;
72427;SDS011;60419;48.880;18.036;2022-11-20T08:50:50;46.13;;;22.25;;
72427;SDS011;60419;48.880;18.036;2022-11-20T08:53:35;48.20;;;22.35;;
72427;SDS011;60419;48.880;18.036;2022-11-20T08:56:21;40.67;;;21.77;;
72427;SDS011;60419;48.880;18.036;2022-11-20T08:59:06;47.67;;;21.83;;
72427;SDS011;60419;48.880;18.036;2022-11-20T09:01:52;46.05;;;22.75;;
72427;SDS011;60419;48.880;18.036;2022-11-20T09:04:37;44.15;;;22.67;;
72427;SDS011;60419;48.880;18.036;2022-11-20T09:07:23;43.75;;;23.05;;
72427;SDS011;60419;48.880;18.036;2022-11-20T09:10:08;45.38;;;22.40;;
72427;SDS011;60419;48.880;18.036;2022-11-20T09:12:55;46.92;;;23.23;;
72427;SDS011;60419;48.880;18.036;2022-11-20T09:15:40;48.05;;;23.83;;
72427;SDS011;60419;48.880;18.036;2022-11-20T09:18:26;44.88;;;22.45;;
72427;SDS011;60419;48.880;18.036;2022-11-20T09:21:13;45.80;;;22.73;;
72427;SDS011;60419;48.880;18.036;2022-11-20T09:23:59;45.28;;;23.10;;
72427;SDS011;60419;48.880;18.036;2022-11-20T09:26:45;44.10;;;22.35;;
72427;SDS011;60419;48.880;18.036;2022-11-20T09:29:31;47.92;;;23.35;;
72427;SDS011;60419;48.880;18.036;2022-11-20T09:32:16;39.13;;;21.67;;
72427;SDS011;60419;48.880;18.036;2022-11-20T09:35:02;41.30;;;22.05;;
72427;SDS011;60419;48.880;18.036;2022-11-20T09:37:47;41.40;;;21.77;;
72427;SDS011;60419;48.880;18.036;2022-11-20T09:40:34;47.20;;;22.33;;
72427;SDS011;60419;48.880;18.036;2022-11-20T09:43:24;47.25;;;21.38;;
72427;SDS011;60419;48.880;18.036;2022-11-20T09:55:39;48.38;;;23.95;;
72427;SDS011;60419;48.880;18.036;2022-11-20T09:58:32;49.83;;;24.27;;
72427;SDS011;60419;48.880;18.036;2022-11-20T10:01:26;51.90;;;24.50;;
72427;SDS011;60419;48.880;18.036;2022-11-20T10:04:17;49.00;;;24.98;;
72427;SDS011;60419;48.880;18.036;2022-11-20T10:07:28;54.40;;;26.35;;
72427;SDS011;60419;48.880;18.036;2022-11-20T10:10:28;53.03;;;25.77;;
72427;SDS011;60419;48.880;18.036;2022-11-20T10:19:26;51.72;;;25.13;;
72427;SDS011;60419;48.880;18.036;2022-11-20T10:22:54;51.90;;;24.70;;
72427;SDS011;60419;48.880;18.036;2022-11-20T10:26:01;49.90;;;24.02;;
72427;SDS011;60419;48.880;18.036;2022-11-20T10:29:11;51.53;;;26.23;;
72427;SDS011;60419;48.880;18.036;2022-11-20T10:32:07;52.08;;;24.70;;
72427;SDS011;60419;48.880;18.036;2022-11-20T10:35:05;100.45;;;34.55;;
72427;SDS011;60419;48.880;18.036;2022-11-20T10:38:02;51.80;;;25.55;;
72427;SDS011;60419;48.880;18.036;2022-11-20T10:40:55;52.17;;;24.13;;
72427;SDS011;60419;48.880;18.036;2022-11-20T10:44:05;49.10;;;23.83;;
72427;SDS011;60419;48.880;18.036;2022-11-20T10:46:57;47.15;;;24.27;;
72427;SDS011;60419;48.880;18.036;2022-11-20T10:49:53;50.25;;;23.85;;
72427;SDS011;60419;48.880;18.036;2022-11-20T10:52:51;50.92;;;24.15;;
72427;SDS011;60419;48.880;18.036;2022-11-20T10:59:37;46.80;;;22.23;;
72427;SDS011;60419;48.880;18.036;2022-11-20T11:02:56;40.17;;;20.77;;
72427;SDS011;60419;48.880;18.036;2022-11-20T11:08:25;54.60;;;25.92;;
72427;SDS011;60419;48.880;18.036;2022-11-20T11:14:07;46.85;;;23.95;;
72427;SDS011;60419;48.880;18.036;2022-11-20T11:16:57;51.80;;;23.80;;
72427;SDS011;60419;48.880;18.036;2022-11-20T11:19:43;48.40;;;22.40;;
72427;SDS011;60419;48.880;18.036;2022-11-20T11:22:29;48.00;;;22.50;;
72427;SDS011;60419;48.880;18.036;2022-11-20T11:25:35;45.75;;;22.70;;
72427;SDS011;60419;48.880;18.036;2022-11-20T11:28:22;48.88;;;23.52;;
72427;SDS011;60419;48.880;18.036;2022-11-20T11:31:11;46.30;;;21.33;;
72427;SDS011;60419;48.880;18.036;2022-11-20T11:34:12;46.75;;;23.13;;
72427;SDS011;60419;48.880;18.036;2022-11-20T11:36:59;47.22;;;21.77;;
72427;SDS011;60419;48.880;18.036;2022-11-20T11:39:48;48.13;;;21.85;;
72427;SDS011;60419;48.880;18.036;2022-11-20T11:42:33;44.70;;;20.85;;
72427;SDS011;60419;48.880;18.036;2022-11-20T11:45:19;49.50;;;21.77;;
72427;SDS011;60419;48.880;18.036;2022-11-20T11:48:05;48.80;;;21.65;;
72427;SDS011;60419;48.880;18.036;2022-11-20T11:50:54;49.22;;;22.80;;
72427;SDS011;60419;48.880;18.036;2022-11-20T11:53:40;50.88;;;25.45;;
72427;SDS011;60419;48.880;18.036;2022-11-20T11:56:27;50.25;;;22.75;;
72427;SDS011;60419;48.880;18.036;2022-11-20T11:59:21;53.65;;;24.17;;
72427;SDS011;60419;48.880;18.036;2022-11-20T12:02:23;48.53;;;24.33;;
72427;SDS011;60419;48.880;18.036;2022-11-20T12:06:01;57.83;;;28.25;;
72427;SDS011;60419;48.880;18.036;2022-11-20T12:08:46;52.53;;;24.85;;
72427;SDS011;60419;48.880;18.036;2022-11-20T12:14:41;53.03;;;23.48;;
72427;SDS011;60419;48.880;18.036;2022-11-20T12:17:31;53.50;;;22.88;;
72427;SDS011;60419;48.880;18.036;2022-11-20T12:20:16;44.00;;;22.50;;
72427;SDS011;60419;48.880;18.036;2022-11-20T12:23:07;47.42;;;22.45;;
72427;SDS011;60419;48.880;18.036;2022-11-20T12:26:00;48.65;;;22.77;;
72427;SDS011;60419;48.880;18.036;2022-11-20T12:28:59;49.67;;;21.90;;
72427;SDS011;60419;48.880;18.036;2022-11-20T12:43:47;48.35;;;21.95;;
72427;SDS011;60419;48.880;18.036;2022-11-20T12:53:05;49.30;;;22.33;;
72427;SDS011;60419;48.880;18.036;2022-11-20T13:02:29;45.72;;;22.25;;
72427;SDS011;60419;48.880;18.036;2022-11-20T13:08:53;50.37;;;22.40;;
72427;SDS011;60419;48.880;18.036;2022-11-20T13:14:50;47.80;;;23.08;;
72427;SDS011;60419;48.880;18.036;2022-11-20T13:18:02;54.25;;;22.98;;
72427;SDS011;60419;48.880;18.036;2022-11-20T13:20:52;48.60;;;22.23;;
72427;SDS011;60419;48.880;18.036;2022-11-20T13:23:38;55.65;;;24.25;;
72427;SDS011;60419;48.880;18.036;2022-11-20T13:26:23;51.85;;;22.33;;
72427;SDS011;60419;48.880;18.036;2022-11-20T13:29:10;56.97;;;24.23;;
72427;SDS011;60419;48.880;18.036;2022-11-20T13:32:05;54.15;;;23.80;;
72427;SDS011;60419;48.880;18.036;2022-11-20T13:35:02;54.47;;;23.17;;
72427;SDS011;60419;48.880;18.036;2022-11-20T13:37:59;49.05;;;21.52;;
72427;SDS011;60419;48.880;18.036;2022-11-20T13:40:56;53.50;;;23.10;;
72427;SDS011;60419;48.880;18.036;2022-11-20T13:43:43;52.08;;;23.02;;
72427;SDS011;60419;48.880;18.036;2022-11-20T13:46:42;54.60;;;23.05;;
72427;SDS011;60419;48.880;18.036;2022-11-20T13:49:33;50.10;;;23.07;;
72427;SDS011;60419;48.880;18.036;2022-11-20T13:55:46;53.00;;;23.65;;
72427;SDS011;60419;48.880;18.036;2022-11-20T13:59:28;50.20;;;22.02;;
72427;SDS011;60419;48.880;18.036;2022-11-20T14:02:19;56.42;;;22.48;;
72427;SDS011;60419;48.880;18.036;2022-11-20T14:05:11;57.45;;;23.95;;
72427;SDS011;60419;48.880;18.036;2022-11-20T14:08:09;55.85;;;23.30;;
72427;SDS011;60419;48.880;18.036;2022-11-20T14:11:15;49.47;;;22.08;;
72427;SDS011;60419;48.880;18.036;2022-11-20T14:14:02;55.08;;;23.58;;
72427;SDS011;60419;48.880;18.036;2022-11-20T14:20:06;56.60;;;23.83;;
72427;SDS011;60419;48.880;18.036;2022-11-20T14:22:57;54.53;;;23.88;;
72427;SDS011;60419;48.880;18.036;2022-11-20T14:25:43;53.10;;;23.05;;
72427;SDS011;60419;48.880;18.036;2022-11-20T14:28:30;55.78;;;23.73;;
72427;SDS011;60419;48.880;18.036;2022-11-20T14:31:23;55.00;;;24.17;;
72427;SDS011;60419;48.880;18.036;2022-11-20T14:34:24;57.40;;;23.98;;
72427;SDS011;60419;48.880;18.036;2022-11-20T14:37:12;60.10;;;24.70;;
72427;SDS011;60419;48.880;18.036;2022-11-20T14:40:05;59.35;;;26.55;;
72427;SDS011;60419;48.880;18.036;2022-11-20T14:43:21;61.72;;;27.20;;
72427;SDS011;60419;48.880;18.036;2022-11-20T14:46:09;64.32;;;25.40;;
72427;SDS011;60419;48.880;18.036;2022-11-20T14:48:55;61.00;;;25.50;;
72427;SDS011;60419;48.880;18.036;2022-11-20T14:51:45;67.40;;;27.73;;
72427;SDS011;60419;48.880;18.036;2022-11-20T14:54:31;66.10;;;26.13;;
72427;SDS011;60419;48.880;18.036;2022-11-20T14:57:22;58.17;;;25.42;;
72427;SDS011;60419;48.880;18.036;2022-11-20T15:02:56;57.13;;;27.35;;
72427;SDS011;60419;48.880;18.036;2022-11-20T15:05:46;62.13;;;24.27;;
72427;SDS011;60419;48.880;18.036;2022-11-20T15:08:33;59.63;;;25.00;;
72427;SDS011;60419;48.880;18.036;2022-11-20T15:11:20;61.92;;;25.15;;
72427;SDS011;60419;48.880;18.036;2022-11-20T15:16:56;59.67;;;25.92;;
72427;SDS011;60419;48.880;18.036;2022-11-20T15:19:41;60.60;;;24.92;;
72427;SDS011;60419;48.880;18.036;2022-11-20T15:22:27;57.80;;;25.42;;
72427;SDS011;60419;48.880;18.036;2022-11-20T15:25:15;58.45;;;25.48;;
72427;SDS011;60419;48.880;18.036;2022-11-20T15:28:02;61.15;;;28.20;;
72427;SDS011;60419;48.880;18.036;2022-11-20T15:30:50;57.45;;;24.98;;
72427;SDS011;60419;48.880;18.036;2022-11-20T15:33:35;64.38;;;27.10;;
72427;SDS011;60419;48.880;18.036;2022-11-20T15:36:20;63.78;;;26.10;;
72427;SDS011;60419;48.880;18.036;2022-11-20T15:39:06;59.05;;;24.90;;
72427;SDS011;60419;48.880;18.036;2022-11-20T15:41:52;62.65;;;26.00;;
72427;SDS011;60419;48.880;18.036;2022-11-20T15:44:37;64.63;;;26.23;;
72427;SDS011;60419;48.880;18.036;2022-11-20T15:47:25;61.28;;;26.27;;
72427;SDS011;60419;48.880;18.036;2022-11-20T15:50:13;59.87;;;24.73;;
72427;SDS011;60419;48.880;18.036;2022-11-20T15:53:02;56.30;;;25.27;;
72427;SDS011;60419;48.880;18.036;2022-11-20T15:55:48;62.70;;;25.60;;
72427;SDS011;60419;48.880;18.036;2022-11-20T15:58:33;60.15;;;26.83;;
72427;SDS011;60419;48.880;18.036;2022-11-20T16:01:20;63.78;;;25.70;;
72427;SDS011;60419;48.880;18.036;2022-11-20T16:04:14;65.90;;;26.38;;
72427;SDS011;60419;48.880;18.036;2022-11-20T16:07:01;65.90;;;27.83;;
72427;SDS011;60419;48.880;18.036;2022-11-20T16:09:46;61.22;;;25.92;;
72427;SDS011;60419;48.880;18.036;2022-11-20T16:12:31;64.07;;;27.20;;
72427;SDS011;60419;48.880;18.036;2022-11-20T16:15:35;58.50;;;25.25;;
72427;SDS011;60419;48.880;18.036;2022-11-20T16:18:30;56.92;;;25.17;;
72427;SDS011;60419;48.880;18.036;2022-11-20T16:21:16;56.80;;;25.85;;
72427;SDS011;60419;48.880;18.036;2022-11-20T16:24:03;62.67;;;26.98;;
72427;SDS011;60419;48.880;18.036;2022-11-20T16:26:50;60.20;;;26.05;;
72427;SDS011;60419;48.880;18.036;2022-11-20T16:29:35;61.22;;;25.73;;
72427;SDS011;60419;48.880;18.036;2022-11-20T16:32:20;60.85;;;26.05;;
72427;SDS011;60419;48.880;18.036;2022-11-20T16:35:06;65.65;;;28.65;;
72427;SDS011;60419;48.880;18.036;2022-11-20T16:37:52;58.28;;;24.35;;
72427;SDS011;60419;48.880;18.036;2022-11-20T16:40:37;59.45;;;25.48;;
72427;SDS011;60419;48.880;18.036;2022-11-20T16:43:23;55.22;;;24.90;;
72427;SDS011;60419;48.880;18.036;2022-11-20T16:46:08;52.92;;;24.20;;
72427;SDS011;60419;48.880;18.036;2022-11-20T16:49:01;55.28;;;24.70;;
72427;SDS011;60419;48.880;18.036;2022-11-20T16:51:48;55.13;;;23.80;;
72427;SDS011;60419;48.880;18.036;2022-11-20T16:54:33;55.20;;;24.98;;
72427;SDS011;60419;48.880;18.036;2022-11-20T16:57:19;53.30;;;23.42;;
72427;SDS011;60419;48.880;18.036;2022-11-20T17:00:04;59.50;;;24.50;;
72427;SDS011;60419;48.880;18.036;2022-11-20T17:02:50;54.25;;;24.50;;
72427;SDS011;60419;48.880;18.036;2022-11-20T17:05:35;55.25;;;25.50;;
72427;SDS011;60419;48.880;18.036;2022-11-20T17:08:21;50.83;;;23.48;;
72427;SDS011;60419;48.880;18.036;2022-11-20T17:11:07;59.75;;;25.30;;
72427;SDS011;60419;48.880;18.036;2022-11-20T17:13:54;56.20;;;24.70;;
72427;SDS011;60419;48.880;18.036;2022-11-20T17:16:40;57.65;;;23.92;;
72427;SDS011;60419;48.880;18.036;2022-11-20T17:19:26;60.30;;;25.30;;
72427;SDS011;60419;48.880;18.036;2022-11-20T17:22:12;57.10;;;25.73;;
72427;SDS011;60419;48.880;18.036;2022-11-20T17:24:57;55.33;;;26.05;;
72427;SDS011;60419;48.880;18.036;2022-11-20T17:27:43;52.80;;;24.05;;
72427;SDS011;60419;48.880;18.036;2022-11-20T17:30:28;58.95;;;25.92;;
72427;SDS011;60419;48.880;18.036;2022-11-20T17:33:14;58.28;;;26.65;;